createdAt,value
2022-09-20T00:01:27.121Z,102953.88
2022-09-20T00:03:57.146Z,102958.22
2022-09-20T00:06:27.178Z,102961.75
2022-09-20T00:08:54.425Z,102963.50
2022-09-20T00:11:24.723Z,102967.91
2022-09-20T00:13:54.794Z,102970.56
2022-09-20T00:16:25.139Z,102963.56
2022-09-20T00:18:54.327Z,102952.16
2022-09-20T00:21:27.086Z,102955.69
2022-09-20T00:23:55.005Z,102934.63
2022-09-20T00:26:21.889Z,102923.28
2022-09-20T00:28:48.745Z,102918.00
2022-09-20T00:31:15.943Z,102904.00
2022-09-20T00:34:01.422Z,102890.84
2022-09-20T00:36:28.626Z,102868.94
2022-09-20T00:39:00.986Z,102857.53
2022-09-20T00:41:28.771Z,102847.88
2022-09-20T00:43:55.866Z,102827.72
2022-09-20T00:46:43.516Z,102830.34
2022-09-20T00:49:22.568Z,102823.31
2022-09-20T00:51:55.692Z,102821.59
2022-09-20T00:54:25.546Z,102810.22
2022-09-20T00:56:52.597Z,102816.34
2022-09-20T00:59:25.599Z,102819.84
2022-09-20T01:01:56.687Z,102822.50
2022-09-20T01:04:27.508Z,102831.28
2022-09-20T01:07:01.136Z,102835.63
2022-09-20T01:09:28.184Z,102833.88
2022-09-20T01:11:57.752Z,102830.38
2022-09-20T01:14:26.398Z,102833.88
2022-09-20T01:16:56.237Z,102824.22
2022-09-20T01:19:40.576Z,102820.72
2022-09-20T01:22:21.112Z,102815.44
2022-09-20T01:24:59.992Z,102813.44
2022-09-20T01:27:44.949Z,102793.22
2022-09-20T01:30:24.376Z,102765.09
2022-09-20T01:33:03.331Z,102727.31
2022-09-20T01:35:34.311Z,102707.13
2022-09-20T01:38:28.018Z,102667.56
2022-09-20T01:41:06.820Z,102655.34
2022-09-20T01:43:53.203Z,102642.13
2022-09-20T01:46:20.076Z,102631.72
2022-09-20T01:48:50.095Z,102615.06
2022-09-20T01:51:36.195Z,102608.78
2022-09-20T01:54:12.072Z,102594.69
2022-09-20T01:57:04.874Z,102582.50
2022-09-20T01:59:53.544Z,102558.84
2022-09-20T02:02:29.349Z,102550.19
2022-09-20T02:05:17.427Z,102527.53
2022-09-20T02:07:55.588Z,102522.28
2022-09-20T02:10:47.337Z,102509.22
2022-09-20T02:13:29.646Z,102499.69
2022-09-20T02:16:21.573Z,102495.47
2022-09-20T02:19:32.949Z,102486.88
2022-09-20T02:22:27.632Z,102492.84
2022-09-20T02:24:57.469Z,102491.97
2022-09-20T02:27:26.603Z,102488.53
2022-09-20T02:30:01.162Z,102493.88
2022-09-20T02:32:46.647Z,102499.16
2022-09-20T02:36:01.553Z,102495.69
2022-09-20T02:38:40.140Z,102499.25
2022-09-20T02:41:51.741Z,102507.13
2022-09-20T02:44:57.366Z,102518.53
2022-09-20T02:47:57.135Z,102522.06
2022-09-20T02:50:47.529Z,102533.47
2022-09-20T02:53:23.954Z,102542.22
2022-09-20T02:56:18.846Z,102541.44
2022-09-20T02:59:00.318Z,102549.38
2022-09-20T03:02:00.515Z,102565.13
2022-09-20T03:04:45.865Z,102573.03
2022-09-20T03:07:37.505Z,102578.31
2022-09-20T03:10:14.106Z,102582.69
2022-09-20T03:12:53.079Z,102576.63
2022-09-20T03:15:41.822Z,102574.00
2022-09-20T03:18:13.955Z,102574.00
2022-09-20T03:21:02.451Z,102574.88
2022-09-20T03:23:46.531Z,102581.88
2022-09-20T03:26:21.302Z,102581.88
2022-09-20T03:29:20.405Z,102580.13
2022-09-20T03:32:01.990Z,102576.59
2022-09-20T03:34:50.712Z,102571.31
2022-09-20T03:37:56.584Z,102567.81
2022-09-20T03:40:29.599Z,102568.63
2022-09-20T03:43:10.084Z,102576.47
2022-09-20T03:45:46.432Z,102575.59
2022-09-20T03:48:51.792Z,102573.81
2022-09-20T03:51:33.744Z,102578.97
2022-09-20T03:54:15.956Z,102579.81
2022-09-20T03:57:34.591Z,102576.28
2022-09-20T04:00:22.733Z,102580.59
2022-09-20T04:03:07.866Z,102577.91
2022-09-20T04:05:40.557Z,102585.75
2022-09-20T04:08:16.262Z,102574.38
2022-09-20T04:10:42.932Z,102583.06
2022-09-20T04:13:34.999Z,102584.75
2022-09-20T04:16:01.693Z,102572.50
2022-09-20T04:18:40.158Z,102581.19
2022-09-20T04:21:15.632Z,102582.78
2022-09-20T04:24:04.154Z,102588.06
2022-09-20T04:26:36.187Z,102591.56
2022-09-20T04:29:24.629Z,102602.03
2022-09-20T04:32:13.286Z,102612.44
2022-09-20T04:35:14.867Z,102615.88
2022-09-20T04:37:44.669Z,102624.59
2022-09-20T04:40:33.150Z,102634.19
2022-09-20T04:43:18.609Z,102637.69
2022-09-20T04:46:00.761Z,102651.66
2022-09-20T04:48:33.455Z,102655.19
2022-09-20T04:51:31.762Z,102663.03
2022-09-20T04:54:22.554Z,102667.38
2022-09-20T04:57:34.478Z,102681.22
2022-09-20T05:00:12.734Z,102688.97
2022-09-20T05:03:16.945Z,102696.78
2022-09-20T05:06:23.682Z,102703.69
2022-09-20T05:09:33.550Z,102710.53
2022-09-20T05:12:39.414Z,102708.63
2022-09-20T05:15:36.434Z,102712.88
2022-09-20T05:18:46.144Z,102722.28
2022-09-20T05:21:50.612Z,102734.41
2022-09-20T05:24:42.685Z,102742.31
2022-09-20T05:27:12.556Z,102760.66
2022-09-20T05:30:04.302Z,102769.41
2022-09-20T05:32:45.311Z,102789.56
2022-09-20T05:35:26.547Z,102800.94
2022-09-20T05:38:02.364Z,102810.50
2022-09-20T05:40:41.152Z,102827.00
2022-09-20T05:43:20.281Z,102834.09
2022-09-20T05:46:14.929Z,102836.72
2022-09-20T05:49:13.082Z,102852.44
2022-09-20T05:51:58.657Z,102873.38
2022-09-20T05:54:35.404Z,102877.78
2022-09-20T05:57:36.124Z,102880.44
2022-09-20T06:00:27.849Z,102902.41
2022-09-20T06:03:14.082Z,102915.78
2022-09-20T06:05:52.949Z,102928.25
2022-09-20T06:08:37.942Z,102942.41
2022-09-20T06:11:27.061Z,102946.06
2022-09-20T06:14:03.749Z,102951.47
2022-09-20T06:17:02.850Z,102967.44
2022-09-20T06:19:39.197Z,102966.78
2022-09-20T06:22:14.039Z,102973.16
2022-09-20T06:25:05.785Z,102988.28
2022-09-20T06:27:47.310Z,102990.19
2022-09-20T06:30:25.004Z,102992.13
2022-09-20T06:32:57.514Z,102993.91
2022-09-20T06:35:29.044Z,102997.50
2022-09-20T06:38:34.368Z,103002.84
2022-09-20T06:41:19.629Z,103009.03
2022-09-20T06:43:48.538Z,103021.38
2022-09-20T06:46:16.204Z,103015.28
2022-09-20T06:48:43.030Z,103016.16
2022-09-20T06:51:10.193Z,103012.69
2022-09-20T06:53:40.306Z,102989.84
2022-09-20T06:56:18.249Z,102974.03
2022-09-20T06:58:45.286Z,102962.56
2022-09-20T07:01:13.778Z,102943.22
2022-09-20T07:03:41.701Z,102931.75
2022-09-20T07:06:09.453Z,102911.56
2022-09-20T07:08:36.479Z,102888.78
2022-09-20T07:11:10.282Z,102872.13
2022-09-20T07:13:37.085Z,102858.03
2022-09-20T07:16:06.541Z,102822.00
2022-09-20T07:18:34.801Z,102790.28
2022-09-20T07:21:02.122Z,102755.09
2022-09-20T07:23:30.189Z,102709.38
2022-09-20T07:26:01.195Z,102676.84
2022-09-20T07:28:29.594Z,102646.88
2022-09-20T07:30:56.467Z,102631.34
2022-09-20T07:33:25.036Z,102614.16
2022-09-20T07:35:56.940Z,102586.53
2022-09-20T07:38:24.388Z,102551.34
2022-09-20T07:41:02.380Z,102487.03
2022-09-20T07:43:30.552Z,102440.75
2022-09-20T07:45:59.427Z,102397.75
2022-09-20T07:48:30.229Z,102374.06
2022-09-20T07:51:04.754Z,102369.22
2022-09-20T07:53:35.109Z,102347.41
2022-09-20T07:56:28.354Z,102345.59
2022-09-20T07:58:55.293Z,102345.91
2022-09-20T08:01:23.542Z,102343.66
2022-09-20T08:03:51.848Z,102345.78
2022-09-20T08:06:21.237Z,102347.31
2022-09-20T08:08:48.374Z,102354.78
2022-09-20T08:11:20.678Z,102350.03
2022-09-20T08:14:07.080Z,102359.38
2022-09-20T08:16:41.952Z,102380.72
2022-09-20T08:19:12.744Z,102374.19
2022-09-20T08:21:39.837Z,102380.59
2022-09-20T08:24:06.839Z,102377.75
2022-09-20T08:26:35.807Z,102361.66
2022-09-20T08:29:05.800Z,102370.16
2022-09-20T08:31:36.958Z,102379.38
2022-09-20T08:34:06.878Z,102381.19
2022-09-20T08:36:36.943Z,102398.09
2022-09-20T08:42:02.189Z,102409.72
2022-09-20T08:44:35.641Z,102410.72
2022-09-20T08:47:09.876Z,102402.63
2022-09-20T08:49:38.083Z,102396.13
2022-09-20T08:52:10.284Z,102383.84
2022-09-20T08:54:37.502Z,102382.06
2022-09-20T08:57:12.939Z,102393.56
2022-09-20T08:59:40.856Z,102408.13
2022-09-20T09:02:20.223Z,102408.06
2022-09-20T09:04:49.202Z,102405.72
2022-09-20T09:07:20.964Z,102407.38
2022-09-20T09:09:51.305Z,102411.16
2022-09-20T09:12:23.933Z,102410.56
2022-09-20T09:14:59.328Z,102408.09
2022-09-20T09:17:30.256Z,102415.44
2022-09-20T09:19:58.767Z,102415.91
2022-09-20T09:22:35.259Z,102414.91
2022-09-20T09:25:17.270Z,102410.94
2022-09-20T09:28:03.866Z,102413.53
2022-09-20T09:30:40.461Z,102406.59
2022-09-20T09:33:30.375Z,102411.81
2022-09-20T09:36:06.892Z,102408.97
2022-09-20T09:38:40.368Z,102402.25
2022-09-20T09:41:27.132Z,102399.38
2022-09-20T09:44:09.673Z,102407.81
2022-09-20T09:46:40.080Z,102406.72
2022-09-20T09:49:36.129Z,102413.81
2022-09-20T09:52:13.069Z,102408.03
2022-09-20T09:55:04.664Z,102406.47
2022-09-20T09:58:06.625Z,102411.09
2022-09-20T10:00:35.768Z,102401.13
2022-09-20T10:03:20.728Z,102401.47
2022-09-20T10:06:23.942Z,102408.22
2022-09-20T10:09:02.247Z,102403.00
2022-09-20T10:12:00.213Z,102409.25
2022-09-20T10:14:38.351Z,102406.75
2022-09-20T10:17:34.245Z,102399.34
2022-09-20T10:20:11.171Z,102399.22
2022-09-20T10:25:57.169Z,102400.13
2022-09-20T10:28:48.633Z,102411.47
2022-09-20T10:31:30.998Z,102403.69
2022-09-20T10:34:35.605Z,102397.97
2022-09-20T10:37:02.524Z,102390.13
2022-09-20T10:39:36.415Z,102385.47
2022-09-20T10:42:40.693Z,102391.72
2022-09-20T10:46:08.751Z,102390.97
2022-09-20T10:48:32.880Z,102393.28
2022-09-20T10:51:23.283Z,102383.63
2022-09-20T10:54:01.402Z,102391.81
2022-09-20T10:56:36.896Z,102394.69
2022-09-20T10:59:36.044Z,102398.97
2022-09-20T11:02:15.159Z,102402.91
2022-09-20T11:04:56.482Z,102409.38
2022-09-20T11:07:23.245Z,102409.16
2022-09-20T11:09:57.513Z,102400.91
2022-09-20T11:12:39.461Z,102395.97
2022-09-20T11:15:18.060Z,102405.88
2022-09-20T11:18:10.360Z,102389.53
2022-09-20T11:20:54.396Z,102385.13
2022-09-20T11:23:32.464Z,102389.16
2022-09-20T11:26:10.312Z,102400.59
2022-09-20T11:28:40.409Z,102397.03
2022-09-20T11:31:27.831Z,102404.84
2022-09-20T11:34:01.808Z,102404.97
2022-09-20T11:36:53.932Z,102412.47
2022-09-20T11:40:00.287Z,102411.47
2022-09-20T11:42:36.802Z,102411.41
2022-09-20T11:45:04.136Z,102414.19
2022-09-20T11:47:54.359Z,102420.59
2022-09-20T11:50:49.513Z,102411.38
2022-09-20T11:53:36.937Z,102414.19
2022-09-20T11:56:12.887Z,102410.94
2022-09-20T11:58:55.210Z,102408.25
2022-09-20T12:01:32.321Z,102407.69
2022-09-20T12:04:30.537Z,102400.63
2022-09-20T12:07:04.664Z,102416.69
2022-09-20T12:09:38.441Z,102410.69
2022-09-20T12:12:16.781Z,102416.56
2022-09-20T12:14:54.696Z,102403.28
2022-09-20T12:17:46.004Z,102405.75
2022-09-20T12:20:45.023Z,102399.53
2022-09-20T12:23:42.474Z,102413.22
2022-09-20T12:26:21.717Z,102417.06
2022-09-20T12:28:50.763Z,102428.69
2022-09-20T12:31:29.856Z,102417.03
2022-09-20T12:34:11.875Z,102421.69
2022-09-20T12:37:05.011Z,102416.41
2022-09-20T12:39:34.533Z,102405.03
2022-09-20T12:42:01.239Z,102413.25
2022-09-20T12:44:39.316Z,102414.63
2022-09-20T12:47:12.047Z,102413.31
2022-09-20T12:50:06.642Z,102423.53
2022-09-20T12:52:57.980Z,102410.34
2022-09-20T12:55:27.991Z,102415.38
2022-09-20T12:58:04.934Z,102427.09
2022-09-20T13:00:59.575Z,102420.91
2022-09-20T13:03:37.049Z,102413.03
2022-09-20T13:06:06.914Z,102416.75
2022-09-20T13:08:39.998Z,102429.31
2022-09-20T13:11:06.902Z,102439.19
2022-09-20T13:13:36.321Z,102435.38
2022-09-20T13:16:06.451Z,102425.97
2022-09-20T13:18:36.222Z,102451.47
2022-09-20T13:21:07.194Z,102444.34
2022-09-20T13:23:45.572Z,102440.84
2022-09-20T13:26:13.795Z,102436.84
2022-09-20T13:28:51.274Z,102446.13
2022-09-20T13:31:23.449Z,102428.28
2022-09-20T13:33:51.139Z,102422.97
2022-09-20T13:36:29.775Z,102424.75
2022-09-20T13:38:58.296Z,102433.81
2022-09-20T13:41:29.242Z,102440.34
2022-09-20T13:43:57.098Z,102439.94
2022-09-20T13:46:30.312Z,102437.41
2022-09-20T13:49:14.862Z,102444.06
2022-09-20T13:51:41.614Z,102441.38
2022-09-20T13:54:37.886Z,102458.19
2022-09-20T13:57:13.452Z,102448.47
2022-09-20T13:59:45.395Z,102458.03
2022-09-20T14:02:26.659Z,102460.13
2022-09-20T14:04:56.112Z,102468.66
2022-09-20T14:07:26.159Z,102468.34
2022-09-20T14:09:54.132Z,102459.91
2022-09-20T14:12:23.950Z,102450.91
2022-09-20T14:14:51.748Z,102457.59
2022-09-20T14:17:21.874Z,102460.53
2022-09-20T14:19:51.810Z,102455.56
2022-09-20T14:22:28.671Z,102466.34
2022-09-20T14:25:19.313Z,102472.88
2022-09-20T14:27:46.212Z,102482.00
2022-09-20T14:30:36.438Z,102470.44
2022-09-20T14:33:07.285Z,102486.97
2022-09-20T14:35:34.305Z,102472.50
2022-09-20T14:38:08.498Z,102474.91
2022-09-20T14:40:44.671Z,102479.31
2022-09-20T14:43:33.016Z,102467.25
2022-09-20T14:46:04.629Z,102456.84
2022-09-20T14:48:35.520Z,102459.59
2022-09-20T14:51:28.703Z,102457.81
2022-09-20T14:54:04.617Z,102453.44
2022-09-20T14:56:37.914Z,102452.53
2022-09-20T14:59:20.775Z,102457.56
2022-09-20T15:02:01.325Z,102460.69
2022-09-20T15:04:29.388Z,102464.81
2022-09-20T15:07:01.048Z,102481.72
2022-09-20T15:09:28.093Z,102483.63
2022-09-20T15:12:03.272Z,102486.63
2022-09-20T15:14:33.832Z,102491.00
2022-09-20T15:17:04.295Z,102494.91
2022-09-20T15:19:31.176Z,102489.63
2022-09-20T15:21:58.177Z,102489.88
2022-09-20T15:24:25.399Z,102495.50
2022-09-20T15:26:52.280Z,102500.22
2022-09-20T15:29:19.281Z,102496.16
2022-09-20T15:31:48.656Z,102499.13
2022-09-20T15:34:16.173Z,102507.28
2022-09-20T15:36:43.401Z,102500.66
2022-09-20T15:39:11.587Z,102503.66
2022-09-20T15:41:38.814Z,102507.59
2022-09-20T15:44:06.635Z,102507.38
2022-09-20T15:46:34.348Z,102512.00
2022-09-20T15:49:02.874Z,102505.13
2022-09-20T15:51:30.531Z,102504.59
2022-09-20T15:54:02.789Z,102505.28
2022-09-20T15:56:32.294Z,102513.16
2022-09-20T15:59:05.839Z,102514.41
2022-09-20T16:01:40.857Z,102512.50
2022-09-20T16:04:12.410Z,102514.28
2022-09-20T16:06:41.479Z,102520.03
2022-09-20T16:09:09.249Z,102521.50
2022-09-20T16:11:36.959Z,102532.13
2022-09-20T16:14:04.068Z,102526.22
2022-09-20T16:16:37.418Z,102532.50
2022-09-20T16:19:21.875Z,102540.47
2022-09-20T16:21:59.098Z,102535.91
2022-09-20T16:24:31.793Z,102530.22
2022-09-20T16:26:59.082Z,102538.34
2022-09-20T16:29:26.599Z,102536.47
2022-09-20T16:31:54.474Z,102549.31
2022-09-20T16:34:23.088Z,102562.66
2022-09-20T16:36:53.156Z,102569.22
2022-09-20T16:39:21.582Z,102578.00
2022-09-20T16:41:49.268Z,102587.19
2022-09-20T16:44:16.264Z,102598.78
2022-09-20T16:46:45.291Z,102605.13
2022-09-20T16:49:13.512Z,102612.22
2022-09-20T16:51:42.268Z,102625.53
2022-09-20T16:54:14.449Z,102634.50
2022-09-20T16:56:43.568Z,102646.13
2022-09-20T16:59:11.126Z,102651.63
2022-09-20T17:01:39.728Z,102664.94
2022-09-20T17:04:07.573Z,102673.88
2022-09-20T17:06:39.104Z,102687.19
2022-09-20T17:09:07.645Z,102691.69
2022-09-20T17:11:37.813Z,102699.72
2022-09-20T17:14:05.521Z,102715.56
2022-09-20T17:16:34.886Z,102724.41
2022-09-20T17:19:07.309Z,102689.41
2022-09-20T17:21:37.075Z,102700.00
2022-09-20T17:24:05.999Z,102713.19
2022-09-20T17:26:38.791Z,102715.94
2022-09-20T17:29:09.481Z,102730.91
2022-09-20T17:31:41.782Z,102731.84
2022-09-20T17:34:11.084Z,102748.56
2022-09-20T17:36:42.911Z,102754.72
2022-09-20T17:39:12.965Z,102761.81
2022-09-20T17:41:41.702Z,102769.72
2022-09-20T17:44:10.033Z,102778.53
2022-09-20T17:46:38.892Z,102786.47
2022-09-20T17:49:18.147Z,102790.00
2022-09-20T17:51:48.150Z,102797.91
2022-09-20T17:54:19.190Z,102809.34
2022-09-20T17:56:48.550Z,102823.38
2022-09-20T17:59:16.732Z,102836.53
2022-09-20T18:01:45.570Z,102843.53
2022-09-20T18:04:13.457Z,102861.03
2022-09-20T18:06:49.514Z,102873.28
2022-09-20T18:09:19.319Z,102879.41
2022-09-20T18:11:49.702Z,102893.44
2022-09-20T18:14:19.128Z,102900.41
2022-09-20T18:16:47.143Z,102915.31
2022-09-20T18:19:16.031Z,102929.31
2022-09-20T18:21:43.922Z,102931.94
2022-09-20T18:24:12.072Z,102954.72
2022-09-20T18:26:39.821Z,102951.22
2022-09-20T18:29:12.459Z,102967.81
2022-09-20T18:31:46.166Z,102981.81
2022-09-20T18:34:18.013Z,102990.53
2022-09-20T18:36:48.374Z,103003.69
2022-09-20T18:39:15.300Z,103007.13
2022-09-20T18:41:44.082Z,103015.88
2022-09-20T18:44:14.476Z,103022.88
2022-09-20T18:46:41.731Z,103039.53
2022-09-20T18:49:13.442Z,103051.81
2022-09-20T18:51:40.765Z,103066.69
2022-09-20T18:54:11.278Z,103070.22
2022-09-20T18:56:43.362Z,103090.41
2022-09-20T18:59:20.707Z,103097.44
2022-09-20T19:01:50.709Z,103112.34
2022-09-20T19:04:59.069Z,103121.09
2022-09-20T19:07:28.466Z,103129.91
2022-09-20T19:10:08.516Z,103137.75
2022-09-20T19:13:02.339Z,103140.31
2022-09-20T19:15:50.660Z,103144.66
2022-09-20T19:18:47.901Z,103154.16
2022-09-20T19:21:27.971Z,103152.34
2022-09-20T19:24:27.020Z,103159.28
2022-09-20T19:26:53.996Z,103160.09
2022-09-20T19:29:26.792Z,103167.03
2022-09-20T19:31:57.504Z,103169.66
2022-09-20T19:34:25.783Z,103180.16
2022-09-20T19:37:18.561Z,103188.03
2022-09-20T19:39:58.391Z,103193.28
2022-09-20T19:42:47.739Z,103193.25
2022-09-20T19:45:33.345Z,103198.41
2022-09-20T19:48:28.274Z,103202.75
2022-09-20T19:50:56.548Z,103206.25
2022-09-20T19:53:28.168Z,103214.13
2022-09-20T19:55:59.639Z,103216.72
2022-09-20T19:58:26.785Z,103228.94
2022-09-20T20:00:53.934Z,103222.75
2022-09-20T20:03:23.627Z,103233.19
2022-09-20T20:06:17.004Z,103230.53
2022-09-20T20:08:59.420Z,103231.38
2022-09-20T20:11:42.511Z,103231.34
2022-09-20T20:14:21.340Z,103233.94
2022-09-20T20:17:04.418Z,103231.31
2022-09-20T20:19:34.162Z,103240.03
2022-09-20T20:22:10.447Z,103237.38
2022-09-20T20:24:53.714Z,103243.53
2022-09-20T20:27:21.187Z,103246.16
2022-09-20T20:29:49.272Z,103250.47
2022-09-20T20:32:16.741Z,103252.19
2022-09-20T20:34:43.590Z,103253.94
2022-09-20T20:37:10.398Z,103258.28
2022-09-20T20:39:37.166Z,103258.22
2022-09-20T20:42:06.183Z,103261.66
2022-09-20T20:44:37.170Z,103265.13
2022-09-20T20:47:05.922Z,103265.06
2022-09-20T20:49:33.264Z,103261.50
2022-09-20T20:52:04.682Z,103271.06
2022-09-20T20:54:32.710Z,103270.13
2022-09-20T20:56:59.618Z,103278.81
2022-09-20T20:59:26.871Z,103287.44
2022-09-20T21:01:53.927Z,103283.03
2022-09-20T21:04:21.655Z,103286.50
2022-09-20T21:06:50.402Z,103295.22
2022-09-20T21:09:17.278Z,103300.44
2022-09-20T21:11:44.459Z,103312.69
2022-09-20T21:14:12.787Z,103317.94
2022-09-20T21:16:45.150Z,103320.56
2022-09-20T21:19:15.128Z,103324.13
2022-09-20T21:21:43.686Z,103337.13
2022-09-20T21:24:12.920Z,103344.97
2022-09-20T21:26:40.477Z,103351.16
2022-09-20T21:29:10.954Z,103360.81
2022-09-20T21:31:44.620Z,103373.94
2022-09-20T21:34:14.113Z,103376.66
2022-09-20T21:36:41.583Z,103390.84
2022-09-20T21:39:08.829Z,103394.34
2022-09-20T21:41:37.670Z,103395.25
2022-09-20T21:44:06.540Z,103396.91
2022-09-20T21:46:40.248Z,103398.59
2022-09-20T21:49:09.093Z,103414.25
2022-09-20T21:51:37.015Z,103412.34
2022-09-20T21:54:04.545Z,103416.66
2022-09-20T21:56:36.791Z,103417.34
2022-09-20T21:59:05.268Z,103420.72
2022-09-20T22:01:35.376Z,103418.81
2022-09-20T22:04:08.163Z,103423.91
2022-09-20T22:06:40.482Z,103431.72
2022-09-20T22:09:13.273Z,103436.06
2022-09-20T22:11:45.775Z,103437.75
2022-09-20T22:14:15.281Z,103446.41
2022-09-20T22:16:43.718Z,103453.44
2022-09-20T22:19:12.818Z,103457.13
2022-09-20T22:21:42.290Z,103472.06
2022-09-20T22:24:10.806Z,103468.47
2022-09-20T22:26:42.964Z,103476.31
2022-09-20T22:29:10.152Z,103486.75
2022-09-20T22:31:44.734Z,103492.78
2022-09-20T22:34:15.269Z,103494.53
2022-09-20T22:36:42.435Z,103507.59
2022-09-20T22:39:11.393Z,103513.59
2022-09-20T22:41:41.107Z,103522.19
2022-09-20T22:44:08.763Z,103525.47
2022-09-20T22:46:36.521Z,103523.47
2022-09-20T22:49:08.573Z,103538.28
2022-09-20T22:51:36.073Z,103540.78
2022-09-20T22:54:08.922Z,103545.22
2022-09-20T22:56:36.543Z,103557.44
2022-09-20T22:59:15.551Z,103568.81
2022-09-20T23:01:45.083Z,103569.53
2022-09-20T23:04:14.744Z,103563.28
2022-09-20T23:06:45.168Z,103573.72
2022-09-20T23:09:14.010Z,103578.94
2022-09-20T23:11:44.725Z,103579.78
2022-09-20T23:14:13.789Z,103588.50
2022-09-20T23:16:41.908Z,103603.41
2022-09-20T23:19:10.091Z,103611.31
2022-09-20T23:21:38.891Z,103620.16
2022-09-20T23:24:11.776Z,103624.44
2022-09-20T23:26:41.118Z,103623.41
2022-09-20T23:29:13.593Z,103627.66
2022-09-20T23:31:45.877Z,103630.22
2022-09-20T23:34:14.821Z,103632.88
2022-09-20T23:36:42.674Z,103632.81
2022-09-20T23:39:10.579Z,103650.25
2022-09-20T23:41:38.177Z,103658.38
2022-09-20T23:44:06.728Z,103664.69
2022-09-20T23:46:34.255Z,103672.47
2022-09-20T23:49:01.833Z,103669.56
2022-09-20T23:51:29.533Z,103671.94
2022-09-20T23:53:56.625Z,103665.69
2022-09-20T23:56:24.012Z,103680.50
2022-09-20T23:58:51.338Z,103682.19
